createdAt,value
2023-04-27T00:00:16.216Z,29.01
2023-04-27T00:01:16.233Z,29.05
2023-04-27T00:02:16.312Z,28.97
2023-04-27T00:03:16.552Z,28.83
2023-04-27T00:04:16.341Z,28.66
2023-04-27T00:05:16.349Z,28.81
2023-04-27T00:06:16.252Z,28.87
2023-04-27T00:07:16.186Z,29.01
2023-04-27T00:08:16.215Z,29.04
2023-04-27T00:09:16.452Z,28.88
2023-04-27T00:10:16.227Z,29.05
2023-04-27T00:11:16.226Z,28.80
2023-04-27T00:12:16.265Z,28.93
2023-04-27T00:13:16.289Z,29.00
2023-04-27T00:14:16.233Z,29.08
2023-04-27T00:15:16.279Z,29.01
2023-04-27T00:16:16.342Z,28.76
2023-04-27T00:17:16.263Z,28.63
2023-04-27T00:18:16.273Z,28.77
2023-04-27T00:19:16.327Z,28.94
2023-04-27T00:20:16.247Z,28.94
2023-04-27T00:21:16.265Z,29.01
2023-04-27T00:22:16.264Z,28.98
2023-04-27T00:23:16.250Z,29.04
2023-04-27T00:24:16.232Z,29.08
2023-04-27T00:25:16.238Z,28.93
2023-04-27T00:26:16.257Z,28.81
2023-04-27T00:27:16.205Z,28.63
2023-04-27T00:28:16.233Z,28.88
2023-04-27T00:29:16.241Z,29.05
2023-04-27T00:30:16.234Z,29.07
2023-04-27T00:31:16.265Z,28.85
2023-04-27T00:32:16.270Z,28.95
2023-04-27T00:33:16.257Z,28.94
2023-04-27T00:34:16.228Z,29.00
2023-04-27T00:35:16.233Z,28.98
2023-04-27T00:36:16.251Z,29.02
2023-04-27T00:37:16.234Z,28.95
2023-04-27T00:38:16.248Z,28.72
2023-04-27T00:39:16.367Z,28.85
2023-04-27T00:40:16.239Z,28.77
2023-04-27T00:41:16.245Z,28.97
2023-04-27T00:42:16.235Z,28.98
2023-04-27T00:43:16.225Z,28.92
2023-04-27T00:44:16.213Z,28.90
2023-04-27T00:45:16.205Z,28.88
2023-04-27T00:46:16.239Z,28.94
2023-04-27T00:47:16.227Z,28.84
2023-04-27T00:48:16.239Z,28.90
2023-04-27T00:49:16.222Z,28.65
2023-04-27T00:50:16.249Z,28.87
2023-04-27T00:51:16.215Z,28.94
2023-04-27T00:52:16.235Z,28.72
2023-04-27T00:53:16.248Z,28.61
2023-04-27T00:54:16.225Z,28.79
2023-04-27T00:55:16.227Z,28.77
2023-04-27T00:56:16.256Z,28.81
2023-04-27T00:57:16.305Z,28.81
2023-04-27T00:58:16.226Z,28.98
2023-04-27T00:59:16.251Z,28.82
2023-04-27T01:00:16.255Z,28.77
2023-04-27T01:01:16.283Z,28.85
2023-04-27T01:02:16.384Z,28.78
2023-04-27T01:03:16.494Z,28.87
2023-04-27T01:04:16.462Z,28.79
2023-04-27T01:05:16.236Z,28.65
2023-04-27T01:06:16.238Z,28.61
2023-04-27T01:07:16.276Z,28.88
2023-04-27T01:08:16.266Z,28.92
2023-04-27T01:09:16.274Z,28.97
2023-04-27T01:10:16.253Z,28.87
2023-04-27T01:11:16.291Z,28.91
2023-04-27T01:12:16.286Z,28.82
2023-04-27T01:13:16.235Z,28.92
2023-04-27T01:14:16.271Z,28.85
2023-04-27T01:15:16.265Z,28.89
2023-04-27T01:16:16.277Z,28.65
2023-04-27T01:17:16.339Z,28.74
2023-04-27T01:18:16.257Z,28.94
2023-04-27T01:19:16.353Z,28.99
2023-04-27T01:20:16.274Z,28.79
2023-04-27T01:21:16.282Z,28.79
2023-04-27T01:22:16.302Z,28.34
2023-04-27T01:23:17.266Z,28.69
2023-04-27T01:24:16.301Z,28.85
2023-04-27T01:25:16.304Z,28.79
2023-04-27T01:26:16.289Z,28.79
2023-04-27T01:27:16.291Z,28.87
2023-04-27T01:28:16.297Z,28.75
2023-04-27T01:29:16.332Z,28.87
2023-04-27T01:30:16.313Z,28.59
2023-04-27T01:31:16.360Z,28.67
2023-04-27T01:32:16.354Z,28.54
2023-04-27T01:33:16.314Z,28.67
2023-04-27T01:34:16.343Z,28.52
2023-04-27T01:35:16.333Z,28.70
2023-04-27T01:36:16.339Z,28.50
2023-04-27T01:37:16.342Z,28.75
2023-04-27T01:38:16.343Z,28.78
2023-04-27T01:39:16.435Z,28.65
2023-04-27T01:40:16.350Z,28.37
2023-04-27T01:41:16.340Z,28.36
2023-04-27T01:42:16.362Z,28.64
2023-04-27T01:43:16.355Z,28.63
2023-04-27T01:44:16.368Z,28.61
2023-04-27T01:45:16.356Z,28.67
2023-04-27T01:46:16.393Z,28.72
2023-04-27T01:47:16.380Z,28.58
2023-04-27T01:48:16.403Z,28.44
2023-04-27T01:49:16.698Z,28.59
2023-04-27T01:50:16.384Z,28.71
2023-04-27T01:51:16.357Z,28.79
2023-04-27T01:52:16.435Z,28.61
2023-04-27T01:53:16.409Z,28.44
2023-04-27T01:54:16.391Z,28.21
2023-04-27T01:55:16.424Z,28.24
2023-04-27T01:56:16.382Z,28.45
2023-04-27T01:57:16.440Z,28.61
2023-04-27T01:58:16.415Z,28.57
2023-04-27T01:59:16.450Z,28.24
2023-04-27T02:00:16.445Z,28.12
2023-04-27T02:01:16.514Z,28.36
2023-04-27T02:02:16.510Z,28.55
2023-04-27T02:03:16.559Z,28.48
2023-04-27T02:04:16.728Z,28.32
2023-04-27T02:05:16.505Z,28.32
2023-04-27T02:06:16.470Z,28.36
2023-04-27T02:07:16.500Z,28.48
2023-04-27T02:08:16.495Z,28.25
2023-04-27T02:09:16.537Z,28.62
2023-04-27T02:10:16.525Z,28.49
2023-04-27T02:11:16.525Z,28.42
2023-04-27T02:12:16.551Z,28.48
2023-04-27T02:13:16.562Z,28.45
2023-04-27T02:14:16.539Z,28.34
2023-04-27T02:15:16.562Z,28.18
2023-04-27T02:16:16.600Z,28.25
2023-04-27T02:17:16.575Z,28.38
2023-04-27T02:18:16.581Z,28.51
2023-04-27T02:19:16.878Z,28.58
2023-04-27T02:20:16.582Z,28.42
2023-04-27T02:21:16.592Z,28.34
2023-04-27T02:22:16.591Z,28.41
2023-04-27T02:23:16.620Z,28.45
2023-04-27T02:24:16.614Z,28.52
2023-04-27T02:25:16.639Z,28.62
2023-04-27T02:26:16.616Z,28.29
2023-04-27T02:27:16.590Z,28.12
2023-04-27T02:28:16.618Z,28.42
2023-04-27T02:29:16.721Z,28.58
2023-04-27T02:30:16.620Z,28.58
2023-04-27T02:31:16.700Z,28.36
2023-04-27T02:32:16.629Z,28.15
2023-04-27T02:33:16.642Z,28.38
2023-04-27T02:34:16.646Z,28.32
2023-04-27T02:35:17.472Z,28.24
2023-04-27T02:36:16.680Z,28.55
2023-04-27T02:37:16.690Z,28.47
2023-04-27T02:38:16.691Z,28.58
2023-04-27T02:39:16.684Z,28.44
2023-04-27T02:40:16.802Z,28.41
2023-04-27T02:41:16.743Z,28.58
2023-04-27T02:42:16.745Z,28.58
2023-04-27T02:43:16.744Z,28.49
2023-04-27T02:44:16.742Z,28.42
2023-04-27T02:45:16.772Z,28.42
2023-04-27T02:46:16.754Z,28.42
2023-04-27T02:47:16.773Z,28.40
2023-04-27T02:48:16.807Z,28.21
2023-04-27T02:49:16.809Z,28.42
2023-04-27T02:50:16.770Z,28.41
2023-04-27T02:51:16.805Z,28.40
2023-04-27T02:52:16.788Z,28.52
2023-04-27T02:53:16.818Z,28.05
2023-04-27T02:54:16.808Z,28.17
2023-04-27T02:55:16.805Z,28.44
2023-04-27T02:56:16.822Z,28.55
2023-04-27T02:57:16.830Z,28.51
2023-04-27T02:58:16.876Z,28.31
2023-04-27T02:59:16.853Z,28.58
2023-04-27T03:00:16.852Z,28.52
2023-04-27T03:01:16.916Z,28.44
2023-04-27T03:02:17.090Z,28.45
2023-04-27T03:03:17.050Z,28.35
2023-04-27T03:04:17.033Z,28.54
2023-04-27T03:05:16.914Z,28.46
2023-04-27T03:06:16.944Z,28.56
2023-04-27T03:07:16.956Z,28.45
2023-04-27T03:08:16.951Z,28.48
2023-04-27T03:09:17.072Z,28.32
2023-04-27T03:10:17.019Z,28.21
2023-04-27T03:11:17.004Z,28.07
2023-04-27T03:12:17.011Z,28.36
2023-04-27T03:13:17.023Z,28.45
2023-04-27T03:14:17.065Z,28.52
2023-04-27T03:15:17.091Z,28.29
2023-04-27T03:16:17.118Z,28.17
2023-04-27T03:17:17.107Z,28.11
2023-04-27T03:18:17.098Z,28.23
2023-04-27T03:19:17.084Z,28.32
2023-04-27T03:20:17.114Z,28.26
2023-04-27T03:21:17.128Z,28.36
2023-04-27T03:22:17.144Z,28.45
2023-04-27T03:23:17.168Z,28.34
2023-04-27T03:24:17.192Z,28.19
2023-04-27T03:25:17.182Z,28.36
2023-04-27T03:26:17.169Z,28.24
2023-04-27T03:27:17.166Z,28.31
2023-04-27T03:28:17.233Z,28.19
2023-04-27T03:29:17.222Z,28.34
2023-04-27T03:30:17.252Z,28.38
2023-04-27T03:31:17.307Z,28.28
2023-04-27T03:32:17.261Z,28.29
2023-04-27T03:33:17.269Z,28.38
2023-04-27T03:34:17.277Z,28.29
2023-04-27T03:35:17.297Z,28.21
2023-04-27T03:36:19.036Z,28.29
2023-04-27T03:37:17.324Z,28.35
2023-04-27T03:38:17.307Z,28.22
2023-04-27T03:39:17.352Z,28.15
2023-04-27T03:40:17.396Z,28.12
2023-04-27T03:41:17.345Z,28.12
2023-04-27T03:42:17.478Z,28.32
2023-04-27T03:43:17.384Z,28.33
2023-04-27T03:44:17.490Z,28.38
2023-04-27T03:45:17.401Z,28.38
2023-04-27T03:46:17.444Z,28.46
2023-04-27T03:47:17.438Z,28.28
2023-04-27T03:48:17.443Z,28.42
2023-04-27T03:49:17.422Z,28.26
2023-04-27T03:50:17.455Z,28.31
2023-04-27T03:51:17.525Z,28.39
2023-04-27T03:52:17.471Z,28.36
2023-04-27T03:53:17.501Z,28.35
2023-04-27T03:54:17.499Z,28.45
2023-04-27T03:55:17.516Z,28.49
2023-04-27T03:56:17.523Z,28.46
2023-04-27T03:57:17.534Z,28.32
2023-04-27T03:58:17.572Z,28.22
2023-04-27T03:59:17.564Z,28.36
2023-04-27T04:00:17.549Z,28.50
2023-04-27T04:01:17.570Z,28.53
2023-04-27T04:02:17.691Z,28.39
2023-04-27T04:03:17.938Z,28.53
2023-04-27T04:04:17.707Z,28.42
2023-04-27T04:05:17.642Z,28.28
2023-04-27T04:06:17.637Z,28.53
2023-04-27T04:07:17.639Z,28.49
2023-04-27T04:08:17.699Z,28.32
2023-04-27T04:09:17.696Z,28.50
2023-04-27T04:10:17.708Z,28.47
2023-04-27T04:11:17.706Z,28.45
2023-04-27T04:12:17.702Z,28.38
2023-04-27T04:13:17.751Z,28.36
2023-04-27T04:14:17.747Z,28.47
2023-04-27T04:15:17.760Z,28.62
2023-04-27T04:16:17.796Z,28.42
2023-04-27T04:17:17.787Z,28.44
2023-04-27T04:18:17.837Z,28.52
2023-04-27T04:19:18.476Z,28.49
2023-04-27T04:20:17.861Z,28.35
2023-04-27T04:21:17.899Z,28.33
2023-04-27T04:22:17.911Z,28.42
2023-04-27T04:23:17.899Z,28.46
2023-04-27T04:24:17.923Z,28.47
2023-04-27T04:25:17.912Z,28.46
2023-04-27T04:26:17.908Z,28.45
2023-04-27T04:27:17.928Z,28.58
2023-04-27T04:28:17.908Z,28.62
2023-04-27T04:29:17.965Z,28.66
2023-04-27T04:30:17.922Z,28.53
2023-04-27T04:31:18.001Z,28.58
2023-04-27T04:32:17.983Z,28.52
2023-04-27T04:33:17.985Z,28.55
2023-04-27T04:34:17.981Z,28.52
2023-04-27T04:35:18.012Z,28.63
2023-04-27T04:36:18.038Z,28.50
2023-04-27T04:37:18.058Z,28.59
2023-04-27T04:38:18.046Z,28.65
2023-04-27T04:39:18.085Z,28.76
2023-04-27T04:40:18.108Z,28.79
2023-04-27T04:41:18.140Z,28.83
2023-04-27T04:42:18.140Z,28.76
2023-04-27T04:43:18.157Z,28.76
2023-04-27T04:44:18.152Z,28.73
2023-04-27T04:45:18.175Z,28.78
2023-04-27T04:46:18.237Z,28.78
2023-04-27T04:47:18.239Z,28.67
2023-04-27T04:48:18.220Z,28.63
2023-04-27T04:49:18.221Z,28.66
2023-04-27T04:50:18.245Z,28.69
2023-04-27T04:51:18.252Z,28.74
2023-04-27T04:52:18.285Z,29.31
2023-04-27T04:53:18.335Z,30.18
2023-04-27T04:54:18.331Z,31.12
2023-04-27T04:55:18.402Z,31.78
2023-04-27T04:56:18.364Z,32.45
2023-04-27T04:57:18.357Z,33.21
2023-04-27T04:58:18.376Z,33.04
2023-04-27T04:59:18.340Z,33.40
2023-04-27T05:00:18.363Z,33.65
2023-04-27T05:01:18.360Z,33.87
2023-04-27T05:02:18.408Z,34.19
2023-04-27T05:03:18.541Z,35.07
2023-04-27T05:04:18.689Z,34.92
2023-04-27T05:05:18.473Z,35.50
2023-04-27T05:06:18.501Z,35.26
2023-04-27T05:07:21.475Z,35.19
2023-04-27T05:08:19.560Z,35.54
2023-04-27T05:09:18.651Z,36.01
2023-04-27T05:10:18.554Z,36.49
2023-04-27T05:11:18.520Z,36.88
2023-04-27T05:12:18.550Z,37.55
2023-04-27T05:13:18.531Z,37.70
2023-04-27T05:14:18.522Z,37.85
2023-04-27T05:15:18.504Z,38.06
2023-04-27T05:16:18.554Z,38.21
2023-04-27T05:17:18.447Z,38.19
2023-04-27T05:18:18.493Z,38.44
2023-04-27T05:19:18.495Z,38.57
2023-04-27T05:20:18.444Z,38.57
2023-04-27T05:21:18.462Z,38.44
2023-04-27T05:22:18.426Z,38.81
2023-04-27T05:23:18.420Z,38.98
2023-04-27T05:24:18.396Z,39.21
2023-04-27T05:25:18.370Z,39.01
2023-04-27T05:26:18.381Z,38.85
2023-04-27T05:27:18.371Z,39.12
2023-04-27T05:28:18.363Z,39.39
2023-04-27T05:29:18.326Z,39.86
2023-04-27T05:30:18.336Z,40.15
2023-04-27T05:31:18.380Z,39.97
2023-04-27T05:32:18.345Z,40.27
2023-04-27T05:33:18.389Z,40.46
2023-04-27T05:34:18.426Z,38.24
2023-04-27T05:35:18.422Z,38.62
2023-04-27T05:36:18.402Z,37.65
2023-04-27T05:37:18.392Z,38.09
2023-04-27T05:38:18.398Z,38.69
2023-04-27T05:39:18.471Z,38.92
2023-04-27T05:40:18.390Z,38.77
2023-04-27T05:41:18.402Z,38.94
2023-04-27T05:42:18.415Z,38.56
2023-04-27T05:43:18.421Z,38.46
2023-04-27T05:44:18.494Z,38.64
2023-04-27T05:45:18.580Z,39.06
2023-04-27T05:46:18.684Z,39.18
2023-04-27T05:47:18.700Z,39.70
2023-04-27T05:48:18.741Z,39.90
2023-04-27T05:49:18.806Z,38.84
2023-04-27T05:50:18.874Z,39.87
2023-04-27T05:51:18.897Z,40.18
2023-04-27T05:52:18.942Z,40.01
2023-04-27T05:53:19.075Z,40.54
2023-04-27T05:54:19.081Z,40.06
2023-04-27T05:55:19.075Z,40.17
2023-04-27T05:56:19.213Z,39.89
2023-04-27T05:57:19.150Z,37.84
2023-04-27T05:58:19.244Z,39.35
2023-04-27T05:59:19.277Z,39.66
2023-04-27T06:00:19.355Z,39.90
2023-04-27T06:01:19.449Z,40.41
2023-04-27T06:02:19.599Z,41.03
2023-04-27T06:03:19.793Z,41.60
2023-04-27T06:04:19.693Z,41.91
2023-04-27T06:05:19.615Z,41.82
2023-04-27T06:06:19.624Z,42.25
2023-04-27T06:07:19.689Z,42.63
2023-04-27T06:08:19.740Z,42.07
2023-04-27T06:09:19.777Z,41.96
2023-04-27T06:10:19.832Z,41.83
2023-04-27T06:11:19.919Z,41.77
2023-04-27T06:12:19.932Z,42.17
2023-04-27T06:13:19.989Z,41.83
2023-04-27T06:14:20.064Z,42.19
2023-04-27T06:15:20.086Z,42.50
2023-04-27T06:16:20.115Z,42.50
2023-04-27T06:17:20.137Z,42.83
2023-04-27T06:18:20.202Z,43.34
2023-04-27T06:19:20.228Z,43.27
2023-04-27T06:20:20.285Z,43.24
2023-04-27T06:21:20.345Z,43.54
2023-04-27T06:22:21.087Z,43.17
2023-04-27T06:23:20.393Z,43.28
2023-04-27T06:24:20.393Z,43.73
2023-04-27T06:25:20.459Z,43.91
2023-04-27T06:26:20.457Z,44.13
2023-04-27T06:27:20.496Z,44.28
2023-04-27T06:28:20.547Z,44.00
2023-04-27T06:29:21.562Z,43.79
2023-04-27T06:30:20.592Z,43.50
2023-04-27T06:31:20.685Z,43.69
2023-04-27T06:32:20.688Z,43.33
2023-04-27T06:33:20.736Z,43.01
2023-04-27T06:34:20.796Z,43.53
2023-04-27T06:35:20.847Z,43.79
2023-04-27T06:36:20.843Z,43.61
2023-04-27T06:37:20.902Z,44.33
2023-04-27T06:38:20.955Z,44.65
2023-04-27T06:39:20.978Z,44.98
2023-04-27T06:40:20.982Z,45.36
2023-04-27T06:41:21.045Z,45.56
2023-04-27T06:42:21.079Z,45.89
2023-04-27T06:43:21.140Z,45.34
2023-04-27T06:44:21.170Z,45.59
2023-04-27T06:45:21.221Z,45.61
2023-04-27T06:46:21.276Z,44.38
2023-04-27T06:47:21.262Z,43.91
2023-04-27T06:48:21.622Z,43.85
2023-04-27T06:49:21.367Z,43.90
2023-04-27T06:50:21.638Z,43.86
2023-04-27T06:51:21.463Z,44.21
2023-04-27T06:52:21.524Z,44.89
2023-04-27T06:53:21.556Z,45.21
2023-04-27T06:54:21.599Z,45.39
2023-04-27T06:55:21.612Z,45.40
2023-04-27T06:56:21.649Z,45.73
2023-04-27T06:57:21.687Z,45.90
2023-04-27T06:58:21.722Z,45.82
2023-04-27T06:59:21.734Z,46.26
2023-04-27T07:00:21.794Z,46.04
2023-04-27T07:01:21.813Z,45.75
2023-04-27T07:02:23.155Z,45.76
2023-04-27T07:03:22.037Z,45.37
2023-04-27T07:04:22.087Z,45.49
2023-04-27T07:05:21.955Z,45.52
2023-04-27T07:06:21.940Z,45.69
2023-04-27T07:07:22.002Z,46.23
2023-04-27T07:08:22.013Z,46.49
2023-04-27T07:09:27.569Z,46.35
2023-04-27T07:10:23.062Z,46.90
2023-04-27T07:11:22.000Z,46.69
2023-04-27T07:12:21.993Z,46.63
2023-04-27T07:13:21.990Z,46.54
2023-04-27T07:14:22.005Z,46.54
2023-04-27T07:15:21.986Z,46.62
2023-04-27T07:16:21.976Z,46.68
2023-04-27T07:17:21.951Z,46.59
2023-04-27T07:18:21.902Z,46.42
2023-04-27T07:19:21.877Z,46.50
2023-04-27T07:20:21.894Z,46.44
2023-04-27T07:21:21.880Z,46.42
2023-04-27T07:22:21.865Z,46.33
2023-04-27T07:23:21.947Z,46.20
2023-04-27T07:24:21.966Z,46.25
2023-04-27T07:25:21.912Z,46.55
2023-04-27T07:26:21.953Z,46.68
2023-04-27T07:27:21.977Z,46.68
2023-04-27T07:28:22.024Z,46.75
2023-04-27T07:29:26.959Z,46.53
2023-04-27T07:30:23.017Z,46.91
2023-04-27T07:31:22.087Z,47.05
2023-04-27T07:32:22.093Z,46.92
2023-04-27T07:33:22.120Z,47.06
2023-04-27T07:34:21.990Z,47.07
2023-04-27T07:35:21.944Z,46.91
2023-04-27T07:36:21.997Z,46.78
2023-04-27T07:37:22.025Z,46.74
2023-04-27T07:38:21.951Z,46.82
2023-04-27T07:39:21.935Z,45.71
2023-04-27T07:40:21.950Z,42.76
2023-04-27T07:41:21.939Z,44.26
2023-04-27T07:42:21.933Z,44.74
2023-04-27T07:43:22.174Z,45.00
2023-04-27T07:44:21.966Z,45.45
2023-04-27T07:45:22.091Z,45.18
2023-04-27T07:46:22.236Z,45.43
2023-04-27T07:47:22.203Z,45.50
2023-04-27T07:48:22.675Z,46.17
2023-04-27T07:49:22.156Z,45.36
2023-04-27T07:50:22.190Z,45.68
2023-04-27T07:51:22.219Z,45.65
2023-04-27T07:52:22.307Z,46.18
2023-04-27T07:53:22.313Z,46.35
2023-04-27T07:54:22.350Z,46.12
2023-04-27T07:55:22.333Z,46.27
2023-04-27T07:56:22.353Z,46.52
2023-04-27T07:57:22.405Z,46.81
2023-04-27T07:58:22.414Z,46.79
2023-04-27T07:59:22.437Z,46.79
2023-04-27T08:00:22.532Z,46.91
2023-04-27T08:01:22.467Z,46.98
2023-04-27T08:02:22.823Z,47.25
2023-04-27T08:03:22.915Z,47.12
2023-04-27T08:04:22.892Z,46.39
2023-04-27T08:05:23.070Z,46.47
2023-04-27T08:06:23.011Z,45.62
2023-04-27T08:07:22.677Z,46.04
2023-04-27T08:08:23.629Z,46.29
2023-04-27T08:09:22.670Z,46.77
2023-04-27T08:10:22.741Z,46.82
2023-04-27T08:11:22.744Z,47.13
2023-04-27T08:12:22.772Z,47.01
2023-04-27T08:13:24.823Z,46.66
2023-04-27T08:14:22.782Z,47.11
2023-04-27T08:15:22.771Z,47.07
2023-04-27T08:16:22.807Z,47.44
2023-04-27T08:17:22.781Z,47.59
2023-04-27T08:18:22.760Z,46.82
2023-04-27T08:19:22.788Z,46.95
2023-04-27T08:20:22.721Z,47.37
2023-04-27T08:21:22.687Z,47.22
2023-04-27T08:22:22.699Z,46.90
2023-04-27T08:23:22.685Z,47.06
2023-04-27T08:24:23.121Z,47.13
2023-04-27T08:25:22.670Z,47.18
2023-04-27T08:26:24.962Z,47.16
2023-04-27T08:27:22.637Z,47.45
2023-04-27T08:28:22.629Z,46.99
2023-04-27T08:29:27.637Z,47.26
2023-04-27T08:30:23.668Z,47.54
2023-04-27T08:31:22.591Z,47.08
2023-04-27T08:32:22.627Z,46.89
2023-04-27T08:33:22.536Z,48.21
2023-04-27T08:34:22.618Z,48.39
2023-04-27T08:35:22.535Z,48.33
2023-04-27T08:36:22.528Z,48.62
2023-04-27T08:37:22.496Z,48.40
2023-04-27T08:38:25.035Z,48.10
2023-04-27T08:39:22.491Z,48.54
2023-04-27T08:40:22.523Z,48.82
2023-04-27T08:41:22.672Z,48.46
2023-04-27T08:42:22.466Z,48.19
2023-04-27T08:43:23.099Z,48.05
2023-04-27T08:44:22.411Z,47.99
2023-04-27T08:45:22.397Z,47.90
2023-04-27T08:46:22.454Z,48.34
2023-04-27T08:47:34.703Z,47.99
2023-04-27T08:48:23.447Z,47.77
2023-04-27T08:49:22.343Z,47.54
2023-04-27T08:50:22.334Z,46.65
2023-04-27T08:51:22.279Z,47.57
2023-04-27T08:52:22.273Z,46.89
2023-04-27T08:53:22.323Z,47.23
2023-04-27T08:54:22.279Z,46.67
2023-04-27T08:55:22.296Z,47.55
2023-04-27T08:56:22.237Z,47.07
2023-04-27T08:57:22.209Z,46.75
2023-04-27T08:58:22.208Z,46.89
2023-04-27T08:59:22.227Z,46.47
2023-04-27T09:00:22.200Z,46.21
2023-04-27T09:01:22.166Z,45.91
2023-04-27T09:02:22.250Z,45.59
2023-04-27T09:03:22.261Z,45.94
2023-04-27T09:04:22.420Z,45.89
2023-04-27T09:05:22.172Z,46.00
2023-04-27T09:06:22.162Z,45.66
2023-04-27T09:07:22.100Z,45.08
2023-04-27T09:08:22.072Z,44.49
2023-04-27T09:09:22.092Z,44.53
2023-04-27T09:10:22.071Z,44.13
2023-04-27T09:11:22.085Z,44.53
2023-04-27T09:12:22.111Z,43.19
2023-04-27T09:13:22.130Z,44.27
2023-04-27T09:14:22.188Z,44.25
2023-04-27T09:15:22.219Z,44.34
2023-04-27T09:16:22.288Z,44.24
2023-04-27T09:17:22.272Z,43.95
2023-04-27T09:18:22.282Z,44.03
2023-04-27T09:19:22.326Z,44.24
2023-04-27T09:20:22.311Z,43.90
2023-04-27T09:21:22.380Z,43.81
2023-04-27T09:22:22.371Z,43.16
2023-04-27T09:23:22.382Z,43.27
2023-04-27T09:24:22.408Z,43.44
2023-04-27T09:25:22.492Z,42.36
2023-04-27T09:26:22.579Z,43.81
2023-04-27T09:27:22.495Z,43.10
2023-04-27T09:28:22.530Z,44.64
2023-04-27T09:29:22.556Z,44.26
2023-04-27T09:30:22.562Z,45.55
2023-04-27T09:31:22.597Z,44.94
2023-04-27T09:32:22.691Z,44.01
2023-04-27T09:33:22.617Z,44.52
2023-04-27T09:34:22.650Z,43.88
2023-04-27T09:35:22.689Z,42.77
2023-04-27T09:36:22.684Z,43.97
2023-04-27T09:37:22.732Z,44.93
2023-04-27T09:38:22.770Z,44.38
2023-04-27T09:39:23.135Z,43.23
2023-04-27T09:40:22.802Z,42.52
2023-04-27T09:41:22.799Z,43.12
2023-04-27T09:42:22.829Z,43.53
2023-04-27T09:43:22.838Z,43.83
2023-04-27T09:44:23.153Z,43.25
2023-04-27T09:45:22.901Z,42.50
2023-04-27T09:46:23.011Z,41.96
2023-04-27T09:47:22.953Z,44.13
2023-04-27T09:48:22.923Z,43.38
2023-04-27T09:49:22.952Z,43.28
2023-04-27T09:50:22.972Z,43.03
2023-04-27T09:51:22.959Z,43.41
2023-04-27T09:52:22.928Z,43.73
2023-04-27T09:53:22.936Z,43.88
2023-04-27T09:54:22.954Z,44.42
2023-04-27T09:55:23.044Z,44.09
2023-04-27T09:56:22.905Z,43.81
2023-04-27T09:57:22.969Z,44.28
2023-04-27T09:58:22.948Z,44.14
2023-04-27T09:59:22.990Z,44.38
2023-04-27T10:00:22.969Z,44.07
2023-04-27T10:01:22.986Z,44.35
2023-04-27T10:02:24.681Z,44.10
2023-04-27T10:03:23.125Z,43.98
2023-04-27T10:04:23.224Z,44.04
2023-04-27T10:05:23.089Z,44.32
2023-04-27T10:06:23.027Z,44.22
2023-04-27T10:07:23.003Z,44.27
2023-04-27T10:08:23.036Z,44.05
2023-04-27T10:09:23.064Z,44.33
2023-04-27T10:10:23.045Z,44.15
2023-04-27T10:11:23.013Z,44.60
2023-04-27T10:12:23.093Z,44.61
2023-04-27T10:13:23.029Z,43.74
2023-04-27T10:14:23.019Z,44.22
2023-04-27T10:15:23.050Z,44.25
2023-04-27T10:16:23.084Z,44.13
2023-04-27T10:17:23.107Z,44.28
2023-04-27T10:18:23.050Z,44.12
2023-04-27T10:19:23.057Z,43.80
2023-04-27T10:20:23.027Z,43.69
2023-04-27T10:21:23.045Z,43.45
2023-04-27T10:23:23.669Z,43.81
2023-04-27T10:24:23.048Z,43.76
2023-04-27T10:25:23.061Z,43.75
2023-04-27T10:26:23.068Z,43.62
2023-04-27T10:27:23.080Z,43.88
2023-04-27T10:28:23.040Z,44.44
2023-04-27T10:29:23.025Z,44.27
2023-04-27T10:30:23.039Z,44.25
2023-04-27T10:31:23.080Z,44.42
2023-04-27T10:32:23.028Z,44.50
2023-04-27T10:33:23.021Z,44.36
2023-04-27T10:34:23.035Z,44.07
2023-04-27T10:35:23.008Z,44.49
2023-04-27T10:36:23.002Z,44.78
2023-04-27T10:37:23.035Z,45.04
2023-04-27T10:38:23.045Z,45.39
2023-04-27T10:39:32.681Z,46.36
2023-04-27T10:40:24.182Z,46.00
2023-04-27T10:41:23.221Z,46.49
2023-04-27T10:42:23.299Z,46.10
2023-04-27T10:43:23.345Z,45.83
2023-04-27T10:44:23.684Z,45.45
2023-04-27T10:45:23.405Z,45.56
2023-04-27T10:46:23.474Z,45.74
2023-04-27T10:47:23.570Z,45.82
2023-04-27T10:48:23.607Z,45.25
2023-04-27T10:49:23.587Z,45.01
2023-04-27T10:50:23.612Z,44.80
2023-04-27T10:51:23.594Z,45.23
2023-04-27T10:52:23.602Z,45.17
2023-04-27T10:53:23.593Z,43.86
2023-04-27T10:54:23.567Z,44.61
2023-04-27T10:55:23.590Z,44.40
2023-04-27T10:56:23.560Z,44.42
2023-04-27T10:57:23.559Z,43.55
2023-04-27T10:58:23.556Z,43.69
2023-04-27T10:59:23.569Z,43.54
2023-04-27T11:00:23.902Z,43.40
2023-04-27T11:01:23.565Z,43.29
2023-04-27T11:02:23.576Z,43.27
2023-04-27T11:03:23.684Z,43.08
2023-04-27T11:04:23.528Z,43.19
2023-04-27T11:05:23.512Z,44.07
2023-04-27T11:06:23.516Z,44.12
2023-04-27T11:07:23.502Z,44.06
2023-04-27T11:08:23.548Z,44.21
2023-04-27T11:09:23.546Z,43.99
2023-04-27T11:10:23.494Z,43.71
2023-04-27T11:11:23.524Z,43.67
2023-04-27T11:12:23.543Z,42.54
2023-04-27T11:13:23.558Z,42.99
2023-04-27T11:14:23.531Z,42.86
2023-04-27T11:15:23.510Z,42.61
2023-04-27T11:16:23.593Z,42.44
2023-04-27T11:17:23.545Z,41.93
2023-04-27T11:18:23.483Z,41.69
2023-04-27T11:19:23.511Z,42.05
2023-04-27T11:20:23.475Z,42.60
2023-04-27T11:21:23.455Z,43.47
2023-04-27T11:22:23.471Z,43.21
2023-04-27T11:23:23.521Z,43.49
2023-04-27T11:24:23.485Z,44.12
2023-04-27T11:25:23.486Z,43.80
2023-04-27T11:26:23.500Z,44.36
2023-04-27T11:27:23.528Z,42.22
2023-04-27T11:28:23.554Z,41.94
2023-04-27T11:29:23.667Z,38.57
2023-04-27T11:30:23.575Z,42.50
2023-04-27T11:31:23.649Z,43.25
2023-04-27T11:32:23.640Z,41.08
2023-04-27T11:33:23.573Z,42.40
2023-04-27T11:34:23.696Z,41.66
2023-04-27T11:35:23.540Z,41.98
2023-04-27T11:36:23.530Z,43.29
2023-04-27T11:37:23.547Z,43.50
2023-04-27T11:38:23.588Z,43.81
2023-04-27T11:39:23.940Z,44.98
2023-04-27T11:40:24.623Z,44.14
2023-04-27T11:41:23.526Z,45.00
2023-04-27T11:42:23.504Z,44.66
2023-04-27T11:43:23.532Z,44.40
2023-04-27T11:44:23.520Z,44.62
2023-04-27T11:45:23.525Z,44.90
2023-04-27T11:46:23.526Z,45.45
2023-04-27T11:47:23.502Z,44.78
2023-04-27T11:48:23.583Z,44.88
2023-04-27T11:49:23.553Z,44.71
2023-04-27T11:50:23.535Z,45.08
2023-04-27T11:51:23.575Z,45.82
2023-04-27T11:52:23.577Z,46.56
2023-04-27T11:53:23.610Z,46.75
2023-04-27T11:54:23.686Z,46.51
2023-04-27T11:55:23.660Z,46.71
2023-04-27T11:56:23.652Z,45.69
2023-04-27T11:57:23.671Z,46.45
2023-04-27T11:58:23.708Z,45.80
2023-04-27T11:59:23.686Z,46.15
2023-04-27T12:00:23.711Z,46.49
2023-04-27T12:01:36.693Z,46.65
2023-04-27T12:02:24.739Z,46.61
2023-04-27T12:03:23.859Z,46.66
2023-04-27T12:04:23.928Z,46.60
2023-04-27T12:05:23.776Z,46.37
2023-04-27T12:06:32.810Z,46.25
2023-04-27T12:07:24.570Z,46.55
2023-04-27T12:08:23.567Z,46.74
2023-04-27T12:09:23.531Z,46.70
2023-04-27T12:10:23.556Z,46.12
2023-04-27T12:11:23.531Z,46.10
2023-04-27T12:12:23.518Z,46.69
2023-04-27T12:13:23.520Z,45.97
2023-04-27T12:14:23.494Z,45.94
2023-04-27T12:15:23.434Z,45.58
2023-04-27T12:16:23.476Z,44.30
2023-04-27T12:17:23.469Z,45.18
2023-04-27T12:18:23.416Z,45.27
2023-04-27T12:19:23.413Z,44.81
2023-04-27T12:20:23.408Z,44.90
2023-04-27T12:21:23.358Z,45.38
2023-04-27T12:22:23.384Z,45.40
2023-04-27T12:23:23.482Z,45.64
2023-04-27T12:24:23.391Z,45.71
2023-04-27T12:25:23.397Z,45.37
2023-04-27T12:26:23.362Z,45.50
2023-04-27T12:27:23.398Z,45.73
2023-04-27T12:28:23.428Z,45.96
2023-04-27T12:29:23.408Z,45.64
2023-04-27T12:30:23.375Z,45.36
2023-04-27T12:31:25.511Z,45.21
2023-04-27T12:32:23.353Z,45.21
2023-04-27T12:33:23.383Z,45.12
2023-04-27T12:34:23.293Z,44.80
2023-04-27T12:35:23.320Z,44.88
2023-04-27T12:36:23.287Z,44.99
2023-04-27T12:37:25.481Z,45.59
2023-04-27T12:38:23.229Z,44.82
2023-04-27T12:39:23.264Z,44.71
2023-04-27T12:40:23.255Z,45.55
2023-04-27T12:41:23.249Z,45.50
2023-04-27T12:42:23.194Z,45.40
2023-04-27T12:43:23.170Z,45.13
2023-04-27T12:44:23.179Z,45.47
2023-04-27T12:45:23.160Z,44.97
2023-04-27T12:46:23.208Z,45.51
2023-04-27T12:47:46.037Z,45.13
2023-04-27T12:48:24.147Z,44.60
2023-04-27T12:49:23.106Z,44.71
2023-04-27T12:50:23.064Z,44.80
2023-04-27T12:51:23.042Z,44.56
2023-04-27T12:52:23.025Z,44.32
2023-04-27T12:53:23.034Z,44.77